sensor_id;sensor_type;location;lat;lon;timestamp;temperature;humidity
8539;DHT22;4307;53.868;11.680;2022-11-24T00:00:13;3.90;99.90
8539;DHT22;4307;53.868;11.680;2022-11-24T00:02:40;3.90;99.90
8539;DHT22;4307;53.868;11.680;2022-11-24T00:05:07;3.80;99.90
8539;DHT22;4307;53.868;11.680;2022-11-24T00:07:33;3.80;99.90
8539;DHT22;4307;53.868;11.680;2022-11-24T00:10:02;3.80;99.90
8539;DHT22;4307;53.868;11.680;2022-11-24T00:12:28;3.80;99.90
8539;DHT22;4307;53.868;11.680;2022-11-24T00:14:55;3.80;99.90
8539;DHT22;4307;53.868;11.680;2022-11-24T00:17:22;3.80;99.90
8539;DHT22;4307;53.868;11.680;2022-11-24T00:19:48;3.70;99.90
8539;DHT22;4307;53.868;11.680;2022-11-24T00:22:15;3.70;99.90
8539;DHT22;4307;53.868;11.680;2022-11-24T00:24:42;3.70;99.90
8539;DHT22;4307;53.868;11.680;2022-11-24T00:27:11;3.70;99.90
8539;DHT22;4307;53.868;11.680;2022-11-24T00:29:37;3.70;99.90
8539;DHT22;4307;53.868;11.680;2022-11-24T00:32:04;3.70;99.90
8539;DHT22;4307;53.868;11.680;2022-11-24T00:34:31;3.70;99.90
8539;DHT22;4307;53.868;11.680;2022-11-24T00:36:58;3.60;99.90
8539;DHT22;4307;53.868;11.680;2022-11-24T00:39:25;3.60;99.90
8539;DHT22;4307;53.868;11.680;2022-11-24T00:41:52;3.60;99.90
8539;DHT22;4307;53.868;11.680;2022-11-24T00:44:20;3.60;99.90
8539;DHT22;4307;53.868;11.680;2022-11-24T00:46:46;3.60;99.90
8539;DHT22;4307;53.868;11.680;2022-11-24T00:49:13;3.60;99.90
8539;DHT22;4307;53.868;11.680;2022-11-24T00:51:40;3.60;99.90
8539;DHT22;4307;53.868;11.680;2022-11-24T00:54:06;3.50;99.90
8539;DHT22;4307;53.868;11.680;2022-11-24T00:56:33;3.50;99.90
8539;DHT22;4307;53.868;11.680;2022-11-24T00:59:00;3.50;99.90
8539;DHT22;4307;53.868;11.680;2022-11-24T01:01:28;3.50;99.90
8539;DHT22;4307;53.868;11.680;2022-11-24T01:03:57;3.40;99.90
8539;DHT22;4307;53.868;11.680;2022-11-24T01:06:26;3.40;99.90
8539;DHT22;4307;53.868;11.680;2022-11-24T01:08:55;3.40;99.90
8539;DHT22;4307;53.868;11.680;2022-11-24T01:11:24;3.40;99.90
8539;DHT22;4307;53.868;11.680;2022-11-24T01:13:53;3.40;99.90
8539;DHT22;4307;53.868;11.680;2022-11-24T01:16:21;3.30;99.90
8539;DHT22;4307;53.868;11.680;2022-11-24T01:18:50;3.30;99.90
8539;DHT22;4307;53.868;11.680;2022-11-24T01:21:18;3.30;99.90
8539;DHT22;4307;53.868;11.680;2022-11-24T01:23:45;3.30;99.90
8539;DHT22;4307;53.868;11.680;2022-11-24T01:26:13;3.30;99.90
8539;DHT22;4307;53.868;11.680;2022-11-24T01:28:40;3.30;99.90
8539;DHT22;4307;53.868;11.680;2022-11-24T01:31:08;3.30;99.90
8539;DHT22;4307;53.868;11.680;2022-11-24T01:33:35;3.30;99.90
8539;DHT22;4307;53.868;11.680;2022-11-24T01:36:04;3.30;99.90
8539;DHT22;4307;53.868;11.680;2022-11-24T01:38:31;3.30;99.90
8539;DHT22;4307;53.868;11.680;2022-11-24T01:41:02;3.30;99.90
8539;DHT22;4307;53.868;11.680;2022-11-24T01:43:29;3.30;99.90
8539;DHT22;4307;53.868;11.680;2022-11-24T01:45:57;3.30;99.90
8539;DHT22;4307;53.868;11.680;2022-11-24T01:48:31;3.30;99.90
8539;DHT22;4307;53.868;11.680;2022-11-24T01:51:07;3.30;99.90
8539;DHT22;4307;53.868;11.680;2022-11-24T01:53:36;3.30;99.90
8539;DHT22;4307;53.868;11.680;2022-11-24T01:56:04;3.30;99.90
8539;DHT22;4307;53.868;11.680;2022-11-24T01:58:33;3.30;99.90
8539;DHT22;4307;53.868;11.680;2022-11-24T02:01:01;3.30;99.90
8539;DHT22;4307;53.868;11.680;2022-11-24T02:03:32;3.30;99.90
8539;DHT22;4307;53.868;11.680;2022-11-24T02:06:04;3.30;99.90
8539;DHT22;4307;53.868;11.680;2022-11-24T02:08:39;3.30;99.90
8539;DHT22;4307;53.868;11.680;2022-11-24T02:11:07;3.30;99.90
8539;DHT22;4307;53.868;11.680;2022-11-24T02:13:36;3.40;99.90
8539;DHT22;4307;53.868;11.680;2022-11-24T02:16:04;3.40;99.90
8539;DHT22;4307;53.868;11.680;2022-11-24T02:18:32;3.40;99.90
8539;DHT22;4307;53.868;11.680;2022-11-24T02:20:59;3.40;99.90
8539;DHT22;4307;53.868;11.680;2022-11-24T02:23:30;3.40;99.90
8539;DHT22;4307;53.868;11.680;2022-11-24T02:26:10;3.40;99.90
8539;DHT22;4307;53.868;11.680;2022-11-24T02:28:43;3.40;99.90
8539;DHT22;4307;53.868;11.680;2022-11-24T02:31:09;3.40;99.90
8539;DHT22;4307;53.868;11.680;2022-11-24T02:33:36;3.40;99.90
8539;DHT22;4307;53.868;11.680;2022-11-24T02:36:04;3.40;99.90
8539;DHT22;4307;53.868;11.680;2022-11-24T02:38:31;3.40;99.90
8539;DHT22;4307;53.868;11.680;2022-11-24T02:41:01;3.50;99.90
8539;DHT22;4307;53.868;11.680;2022-11-24T02:43:31;3.50;99.90
8539;DHT22;4307;53.868;11.680;2022-11-24T02:45:59;3.50;99.90
8539;DHT22;4307;53.868;11.680;2022-11-24T02:48:26;3.50;99.90
8539;DHT22;4307;53.868;11.680;2022-11-24T02:50:53;3.50;99.90
8539;DHT22;4307;53.868;11.680;2022-11-24T02:53:19;3.50;99.90
8539;DHT22;4307;53.868;11.680;2022-11-24T02:55:46;3.50;99.90
8539;DHT22;4307;53.868;11.680;2022-11-24T02:58:13;3.50;99.90
8539;DHT22;4307;53.868;11.680;2022-11-24T03:00:40;3.50;99.90
8539;DHT22;4307;53.868;11.680;2022-11-24T03:03:08;3.50;99.90
8539;DHT22;4307;53.868;11.680;2022-11-24T03:05:35;3.60;99.90
8539;DHT22;4307;53.868;11.680;2022-11-24T03:08:01;3.60;99.90
8539;DHT22;4307;53.868;11.680;2022-11-24T03:10:28;3.60;99.90
8539;DHT22;4307;53.868;11.680;2022-11-24T03:12:55;3.60;99.90
8539;DHT22;4307;53.868;11.680;2022-11-24T03:15:22;3.60;99.90
8539;DHT22;4307;53.868;11.680;2022-11-24T03:17:49;3.60;99.90
8539;DHT22;4307;53.868;11.680;2022-11-24T03:20:17;3.60;99.90
8539;DHT22;4307;53.868;11.680;2022-11-24T03:22:44;3.60;99.90
8539;DHT22;4307;53.868;11.680;2022-11-24T03:25:11;3.70;99.90
8539;DHT22;4307;53.868;11.680;2022-11-24T03:27:37;3.70;99.90
8539;DHT22;4307;53.868;11.680;2022-11-24T03:30:05;3.70;99.90
8539;DHT22;4307;53.868;11.680;2022-11-24T03:32:32;3.70;99.90
8539;DHT22;4307;53.868;11.680;2022-11-24T03:34:58;3.70;99.90
8539;DHT22;4307;53.868;11.680;2022-11-24T03:37:26;3.70;99.90
8539;DHT22;4307;53.868;11.680;2022-11-24T03:39:53;3.70;99.90
8539;DHT22;4307;53.868;11.680;2022-11-24T03:42:20;3.70;99.90
8539;DHT22;4307;53.868;11.680;2022-11-24T03:44:46;3.70;99.90
8539;DHT22;4307;53.868;11.680;2022-11-24T03:47:13;3.70;99.90
8539;DHT22;4307;53.868;11.680;2022-11-24T03:49:40;3.80;99.90
8539;DHT22;4307;53.868;11.680;2022-11-24T03:52:06;3.80;99.90
8539;DHT22;4307;53.868;11.680;2022-11-24T03:54:34;3.80;99.90
8539;DHT22;4307;53.868;11.680;2022-11-24T03:57:01;3.80;99.90
8539;DHT22;4307;53.868;11.680;2022-11-24T03:59:28;3.80;99.90
8539;DHT22;4307;53.868;11.680;2022-11-24T04:01:54;3.80;99.90
8539;DHT22;4307;53.868;11.680;2022-11-24T04:04:21;3.80;99.90
8539;DHT22;4307;53.868;11.680;2022-11-24T04:06:48;3.80;99.90
8539;DHT22;4307;53.868;11.680;2022-11-24T04:09:14;3.80;99.90
8539;DHT22;4307;53.868;11.680;2022-11-24T04:11:42;3.80;99.90
8539;DHT22;4307;53.868;11.680;2022-11-24T04:14:27;3.80;99.90
8539;DHT22;4307;53.868;11.680;2022-11-24T04:16:53;3.90;99.90
8539;DHT22;4307;53.868;11.680;2022-11-24T04:19:20;3.90;99.90
8539;DHT22;4307;53.868;11.680;2022-11-24T04:21:47;3.90;99.90
8539;DHT22;4307;53.868;11.680;2022-11-24T04:24:13;3.90;99.90
8539;DHT22;4307;53.868;11.680;2022-11-24T04:26:40;3.90;99.90
8539;DHT22;4307;53.868;11.680;2022-11-24T04:29:09;3.90;99.90
8539;DHT22;4307;53.868;11.680;2022-11-24T04:31:36;3.90;99.90
8539;DHT22;4307;53.868;11.680;2022-11-24T04:34:02;3.90;99.90
8539;DHT22;4307;53.868;11.680;2022-11-24T04:36:29;3.90;99.90
8539;DHT22;4307;53.868;11.680;2022-11-24T04:38:56;4.00;99.90
8539;DHT22;4307;53.868;11.680;2022-11-24T04:41:22;4.00;99.90
8539;DHT22;4307;53.868;11.680;2022-11-24T04:43:49;4.00;99.90
8539;DHT22;4307;53.868;11.680;2022-11-24T04:46:17;4.00;99.90
8539;DHT22;4307;53.868;11.680;2022-11-24T04:48:44;4.00;99.90
8539;DHT22;4307;53.868;11.680;2022-11-24T04:51:12;4.00;99.90
8539;DHT22;4307;53.868;11.680;2022-11-24T04:53:39;4.00;99.90
8539;DHT22;4307;53.868;11.680;2022-11-24T04:56:07;4.00;99.90
8539;DHT22;4307;53.868;11.680;2022-11-24T04:58:34;4.00;99.90
8539;DHT22;4307;53.868;11.680;2022-11-24T05:01:00;4.00;99.90
8539;DHT22;4307;53.868;11.680;2022-11-24T05:03:28;4.10;99.90
8539;DHT22;4307;53.868;11.680;2022-11-24T05:05:57;4.00;99.90
8539;DHT22;4307;53.868;11.680;2022-11-24T05:08:24;4.00;99.90
8539;DHT22;4307;53.868;11.680;2022-11-24T05:10:50;4.10;99.90
8539;DHT22;4307;53.868;11.680;2022-11-24T05:13:17;4.10;99.90
8539;DHT22;4307;53.868;11.680;2022-11-24T05:15:44;4.10;99.90
8539;DHT22;4307;53.868;11.680;2022-11-24T05:18:12;4.10;99.90
8539;DHT22;4307;53.868;11.680;2022-11-24T05:20:41;4.10;99.90
8539;DHT22;4307;53.868;11.680;2022-11-24T05:23:09;4.10;99.90
8539;DHT22;4307;53.868;11.680;2022-11-24T05:25:35;4.10;99.90
8539;DHT22;4307;53.868;11.680;2022-11-24T05:28:05;4.20;99.90
8539;DHT22;4307;53.868;11.680;2022-11-24T05:30:33;4.20;99.90
8539;DHT22;4307;53.868;11.680;2022-11-24T05:33:03;4.20;99.90
8539;DHT22;4307;53.868;11.680;2022-11-24T05:35:31;4.20;99.90
8539;DHT22;4307;53.868;11.680;2022-11-24T05:37:58;4.20;99.90
8539;DHT22;4307;53.868;11.680;2022-11-24T05:40:25;4.20;99.90
8539;DHT22;4307;53.868;11.680;2022-11-24T05:42:52;4.20;99.90
8539;DHT22;4307;53.868;11.680;2022-11-24T05:45:20;4.20;99.90
8539;DHT22;4307;53.868;11.680;2022-11-24T05:47:47;4.20;99.90
8539;DHT22;4307;53.868;11.680;2022-11-24T05:50:17;4.30;99.90
8539;DHT22;4307;53.868;11.680;2022-11-24T05:52:44;4.30;99.90
8539;DHT22;4307;53.868;11.680;2022-11-24T05:55:13;4.30;99.90
8539;DHT22;4307;53.868;11.680;2022-11-24T05:57:40;4.30;99.90
8539;DHT22;4307;53.868;11.680;2022-11-24T06:00:08;4.30;99.90
8539;DHT22;4307;53.868;11.680;2022-11-24T06:02:36;4.30;99.90
8539;DHT22;4307;53.868;11.680;2022-11-24T06:05:03;4.30;99.90
8539;DHT22;4307;53.868;11.680;2022-11-24T06:07:29;4.30;99.90
8539;DHT22;4307;53.868;11.680;2022-11-24T06:09:56;4.30;99.90
8539;DHT22;4307;53.868;11.680;2022-11-24T06:12:24;4.30;99.90
8539;DHT22;4307;53.868;11.680;2022-11-24T06:14:51;4.40;99.90
8539;DHT22;4307;53.868;11.680;2022-11-24T06:17:17;4.40;99.90
8539;DHT22;4307;53.868;11.680;2022-11-24T06:19:44;4.30;99.90
8539;DHT22;4307;53.868;11.680;2022-11-24T06:22:14;4.40;99.90
8539;DHT22;4307;53.868;11.680;2022-11-24T06:24:41;4.40;99.90
8539;DHT22;4307;53.868;11.680;2022-11-24T06:27:07;4.40;99.90
8539;DHT22;4307;53.868;11.680;2022-11-24T06:29:35;4.40;99.90
8539;DHT22;4307;53.868;11.680;2022-11-24T06:32:02;4.40;99.90
8539;DHT22;4307;53.868;11.680;2022-11-24T06:34:29;4.40;99.90
8539;DHT22;4307;53.868;11.680;2022-11-24T06:36:56;4.40;99.90
8539;DHT22;4307;53.868;11.680;2022-11-24T06:39:22;4.40;99.90
8539;DHT22;4307;53.868;11.680;2022-11-24T06:41:49;4.40;99.90
8539;DHT22;4307;53.868;11.680;2022-11-24T06:44:16;4.40;99.90
8539;DHT22;4307;53.868;11.680;2022-11-24T06:46:44;4.40;99.90
8539;DHT22;4307;53.868;11.680;2022-11-24T06:49:11;4.40;99.90
8539;DHT22;4307;53.868;11.680;2022-11-24T06:51:38;4.40;99.90
8539;DHT22;4307;53.868;11.680;2022-11-24T06:54:05;4.40;99.90
8539;DHT22;4307;53.868;11.680;2022-11-24T06:56:32;4.40;99.90
8539;DHT22;4307;53.868;11.680;2022-11-24T06:58:59;4.40;99.90
8539;DHT22;4307;53.868;11.680;2022-11-24T07:01:27;4.40;99.90
8539;DHT22;4307;53.868;11.680;2022-11-24T07:03:56;4.40;99.90
8539;DHT22;4307;53.868;11.680;2022-11-24T07:06:24;4.40;99.90
8539;DHT22;4307;53.868;11.680;2022-11-24T07:08:52;4.40;99.90
8539;DHT22;4307;53.868;11.680;2022-11-24T07:11:21;4.40;99.90
8539;DHT22;4307;53.868;11.680;2022-11-24T07:13:49;4.40;99.90
8539;DHT22;4307;53.868;11.680;2022-11-24T07:16:17;4.40;99.90
8539;DHT22;4307;53.868;11.680;2022-11-24T07:18:45;4.40;99.90
8539;DHT22;4307;53.868;11.680;2022-11-24T07:21:14;4.40;99.90
8539;DHT22;4307;53.868;11.680;2022-11-24T07:23:41;4.40;99.90
8539;DHT22;4307;53.868;11.680;2022-11-24T07:26:08;4.50;99.90
8539;DHT22;4307;53.868;11.680;2022-11-24T07:28:36;4.40;99.90
8539;DHT22;4307;53.868;11.680;2022-11-24T07:31:04;4.50;99.90
8539;DHT22;4307;53.868;11.680;2022-11-24T07:33:31;4.50;99.90
8539;DHT22;4307;53.868;11.680;2022-11-24T07:35:58;4.50;99.90
8539;DHT22;4307;53.868;11.680;2022-11-24T07:38:29;4.50;99.90
8539;DHT22;4307;53.868;11.680;2022-11-24T07:40:59;4.50;99.90
8539;DHT22;4307;53.868;11.680;2022-11-24T07:43:26;4.50;99.90
8539;DHT22;4307;53.868;11.680;2022-11-24T07:45:53;4.50;99.90
8539;DHT22;4307;53.868;11.680;2022-11-24T07:48:20;4.50;99.90
8539;DHT22;4307;53.868;11.680;2022-11-24T07:50:46;4.50;99.90
8539;DHT22;4307;53.868;11.680;2022-11-24T07:53:13;4.50;99.90
8539;DHT22;4307;53.868;11.680;2022-11-24T07:55:41;4.60;99.90
8539;DHT22;4307;53.868;11.680;2022-11-24T07:58:08;4.60;99.90
8539;DHT22;4307;53.868;11.680;2022-11-24T08:00:35;4.60;99.90
8539;DHT22;4307;53.868;11.680;2022-11-24T08:03:01;4.60;99.90
8539;DHT22;4307;53.868;11.680;2022-11-24T08:05:28;4.60;99.90
8539;DHT22;4307;53.868;11.680;2022-11-24T08:07:55;4.60;99.90
8539;DHT22;4307;53.868;11.680;2022-11-24T08:10:21;4.50;99.90
8539;DHT22;4307;53.868;11.680;2022-11-24T08:12:49;4.60;99.90
8539;DHT22;4307;53.868;11.680;2022-11-24T08:15:16;4.50;99.90
8539;DHT22;4307;53.868;11.680;2022-11-24T08:17:43;4.50;99.90
8539;DHT22;4307;53.868;11.680;2022-11-24T08:20:10;4.50;99.90
8539;DHT22;4307;53.868;11.680;2022-11-24T08:22:36;4.50;99.90
8539;DHT22;4307;53.868;11.680;2022-11-24T08:25:03;4.50;99.90
8539;DHT22;4307;53.868;11.680;2022-11-24T08:27:30;4.50;99.90
8539;DHT22;4307;53.868;11.680;2022-11-24T08:29:58;4.50;99.90
8539;DHT22;4307;53.868;11.680;2022-11-24T08:32:25;4.60;99.90
8539;DHT22;4307;53.868;11.680;2022-11-24T08:34:51;4.60;99.90
8539;DHT22;4307;53.868;11.680;2022-11-24T08:37:18;4.60;99.90
8539;DHT22;4307;53.868;11.680;2022-11-24T08:39:45;4.60;99.90
8539;DHT22;4307;53.868;11.680;2022-11-24T08:42:11;4.60;99.90
8539;DHT22;4307;53.868;11.680;2022-11-24T08:44:39;4.60;99.90
8539;DHT22;4307;53.868;11.680;2022-11-24T08:47:08;4.60;99.90
8539;DHT22;4307;53.868;11.680;2022-11-24T08:49:35;4.70;99.90
8539;DHT22;4307;53.868;11.680;2022-11-24T08:52:02;4.70;99.90
8539;DHT22;4307;53.868;11.680;2022-11-24T08:54:28;4.70;99.90
8539;DHT22;4307;53.868;11.680;2022-11-24T08:56:55;4.70;99.90
8539;DHT22;4307;53.868;11.680;2022-11-24T08:59:22;4.70;99.90
8539;DHT22;4307;53.868;11.680;2022-11-24T09:01:48;4.80;99.90
8539;DHT22;4307;53.868;11.680;2022-11-24T09:04:16;4.80;99.90
8539;DHT22;4307;53.868;11.680;2022-11-24T09:06:43;4.80;99.90
8539;DHT22;4307;53.868;11.680;2022-11-24T09:09:10;4.80;99.90
8539;DHT22;4307;53.868;11.680;2022-11-24T09:11:37;4.80;99.90
8539;DHT22;4307;53.868;11.680;2022-11-24T09:14:04;4.80;99.90
8539;DHT22;4307;53.868;11.680;2022-11-24T09:16:30;4.90;99.90
8539;DHT22;4307;53.868;11.680;2022-11-24T09:18:59;4.90;99.90
8539;DHT22;4307;53.868;11.680;2022-11-24T09:21:28;4.90;99.90
8539;DHT22;4307;53.868;11.680;2022-11-24T09:23:54;5.00;99.90
8539;DHT22;4307;53.868;11.680;2022-11-24T09:26:23;5.00;99.90
8539;DHT22;4307;53.868;11.680;2022-11-24T09:28:51;4.90;99.90
8539;DHT22;4307;53.868;11.680;2022-11-24T09:31:21;4.90;99.90
8539;DHT22;4307;53.868;11.680;2022-11-24T09:33:47;4.90;99.90
8539;DHT22;4307;53.868;11.680;2022-11-24T09:36:14;4.90;99.90
8539;DHT22;4307;53.868;11.680;2022-11-24T09:38:42;5.00;99.90
8539;DHT22;4307;53.868;11.680;2022-11-24T09:41:36;5.00;99.90
8539;DHT22;4307;53.868;11.680;2022-11-24T09:44:08;5.00;99.90
8539;DHT22;4307;53.868;11.680;2022-11-24T09:46:47;5.00;99.90
8539;DHT22;4307;53.868;11.680;2022-11-24T09:49:23;5.00;99.90
8539;DHT22;4307;53.868;11.680;2022-11-24T09:51:54;5.00;99.90
8539;DHT22;4307;53.868;11.680;2022-11-24T09:54:25;5.00;99.90
8539;DHT22;4307;53.868;11.680;2022-11-24T09:56:54;5.00;99.90
8539;DHT22;4307;53.868;11.680;2022-11-24T09:59:22;5.00;99.90
8539;DHT22;4307;53.868;11.680;2022-11-24T10:01:51;5.10;99.90
8539;DHT22;4307;53.868;11.680;2022-11-24T10:04:23;5.10;99.90
8539;DHT22;4307;53.868;11.680;2022-11-24T10:06:57;5.10;99.90
8539;DHT22;4307;53.868;11.680;2022-11-24T10:09:42;5.10;99.90
8539;DHT22;4307;53.868;11.680;2022-11-24T10:12:27;5.20;99.90
8539;DHT22;4307;53.868;11.680;2022-11-24T10:15:21;5.20;99.90
8539;DHT22;4307;53.868;11.680;2022-11-24T10:18:11;5.30;99.90
8539;DHT22;4307;53.868;11.680;2022-11-24T10:20:50;5.30;99.90
8539;DHT22;4307;53.868;11.680;2022-11-24T10:23:27;5.40;99.90
8539;DHT22;4307;53.868;11.680;2022-11-24T10:25:59;5.40;99.90
8539;DHT22;4307;53.868;11.680;2022-11-24T10:28:30;5.50;99.90
8539;DHT22;4307;53.868;11.680;2022-11-24T10:31:16;5.50;99.90
8539;DHT22;4307;53.868;11.680;2022-11-24T10:33:45;5.50;99.90
8539;DHT22;4307;53.868;11.680;2022-11-24T10:36:17;5.60;99.90
8539;DHT22;4307;53.868;11.680;2022-11-24T10:39:01;5.60;99.90
8539;DHT22;4307;53.868;11.680;2022-11-24T10:41:37;5.60;99.90
8539;DHT22;4307;53.868;11.680;2022-11-24T10:44:11;5.70;99.90
8539;DHT22;4307;53.868;11.680;2022-11-24T10:46:38;5.70;99.90
8539;DHT22;4307;53.868;11.680;2022-11-24T10:49:04;5.80;99.90
8539;DHT22;4307;53.868;11.680;2022-11-24T10:51:51;5.80;99.90
8539;DHT22;4307;53.868;11.680;2022-11-24T10:54:22;5.90;99.90
8539;DHT22;4307;53.868;11.680;2022-11-24T10:56:52;5.90;99.90
8539;DHT22;4307;53.868;11.680;2022-11-24T10:59:34;6.00;99.90
8539;DHT22;4307;53.868;11.680;2022-11-24T11:02:02;6.00;99.90
8539;DHT22;4307;53.868;11.680;2022-11-24T11:04:30;6.10;99.90
8539;DHT22;4307;53.868;11.680;2022-11-24T11:37:02;6.40;99.90
8539;DHT22;4307;53.868;11.680;2022-11-24T11:39:31;6.40;99.90
8539;DHT22;4307;53.868;11.680;2022-11-24T11:42:09;6.40;99.90
8539;DHT22;4307;53.868;11.680;2022-11-24T11:44:39;6.40;99.90
8539;DHT22;4307;53.868;11.680;2022-11-24T11:47:12;6.40;99.90
8539;DHT22;4307;53.868;11.680;2022-11-24T11:49:41;6.40;99.90
8539;DHT22;4307;53.868;11.680;2022-11-24T11:52:27;6.40;99.90
8539;DHT22;4307;53.868;11.680;2022-11-24T11:55:22;6.50;99.90
8539;DHT22;4307;53.868;11.680;2022-11-24T11:57:58;6.50;99.90
8539;DHT22;4307;53.868;11.680;2022-11-24T12:00:28;6.50;99.90
8539;DHT22;4307;53.868;11.680;2022-11-24T12:03:30;6.50;99.90
8539;DHT22;4307;53.868;11.680;2022-11-24T12:06:07;6.50;99.90
8539;DHT22;4307;53.868;11.680;2022-11-24T12:08:43;6.50;99.90
8539;DHT22;4307;53.868;11.680;2022-11-24T12:11:14;6.50;99.90
8539;DHT22;4307;53.868;11.680;2022-11-24T12:13:53;6.60;99.90
8539;DHT22;4307;53.868;11.680;2022-11-24T12:16:29;6.60;99.90
8539;DHT22;4307;53.868;11.680;2022-11-24T12:19:18;6.60;99.90
8539;DHT22;4307;53.868;11.680;2022-11-24T12:21:56;6.70;99.90
8539;DHT22;4307;53.868;11.680;2022-11-24T12:24:37;6.70;99.90
8539;DHT22;4307;53.868;11.680;2022-11-24T12:27:14;6.70;99.90
8539;DHT22;4307;53.868;11.680;2022-11-24T12:29:54;6.80;99.90
8539;DHT22;4307;53.868;11.680;2022-11-24T12:32:41;6.80;99.90
8539;DHT22;4307;53.868;11.680;2022-11-24T12:35:19;6.80;99.90
8539;DHT22;4307;53.868;11.680;2022-11-24T12:37:56;6.80;99.90
8539;DHT22;4307;53.868;11.680;2022-11-24T12:40:37;6.80;99.90
8539;DHT22;4307;53.868;11.680;2022-11-24T12:43:10;6.80;99.90
8539;DHT22;4307;53.868;11.680;2022-11-24T12:45:43;6.90;99.90
8539;DHT22;4307;53.868;11.680;2022-11-24T12:48:25;6.90;99.90
8539;DHT22;4307;53.868;11.680;2022-11-24T12:50:54;6.90;99.90
8539;DHT22;4307;53.868;11.680;2022-11-24T12:53:25;6.90;99.90
8539;DHT22;4307;53.868;11.680;2022-11-24T12:56:04;7.00;99.90
8539;DHT22;4307;53.868;11.680;2022-11-24T12:58:36;7.00;99.90
8539;DHT22;4307;53.868;11.680;2022-11-24T13:01:11;7.00;99.90
8539;DHT22;4307;53.868;11.680;2022-11-24T13:03:47;7.00;99.90
8539;DHT22;4307;53.868;11.680;2022-11-24T13:06:18;7.10;99.90
8539;DHT22;4307;53.868;11.680;2022-11-24T13:08:46;7.10;99.90
8539;DHT22;4307;53.868;11.680;2022-11-24T13:11:35;7.10;99.90
8539;DHT22;4307;53.868;11.680;2022-11-24T13:14:05;7.10;99.90
8539;DHT22;4307;53.868;11.680;2022-11-24T13:16:33;7.20;99.90
8539;DHT22;4307;53.868;11.680;2022-11-24T13:19:05;7.20;99.90
8539;DHT22;4307;53.868;11.680;2022-11-24T13:24:29;7.30;99.90
8539;DHT22;4307;53.868;11.680;2022-11-24T13:27:38;7.30;99.90
8539;DHT22;4307;53.868;11.680;2022-11-24T13:33:27;7.30;99.90
8539;DHT22;4307;53.868;11.680;2022-11-24T13:36:31;7.30;99.90
8539;DHT22;4307;53.868;11.680;2022-11-24T13:38:59;7.30;99.90
8539;DHT22;4307;53.868;11.680;2022-11-24T13:44:50;7.30;99.90
8539;DHT22;4307;53.868;11.680;2022-11-24T13:47:41;7.30;99.90
8539;DHT22;4307;53.868;11.680;2022-11-24T13:50:12;7.40;99.90
8539;DHT22;4307;53.868;11.680;2022-11-24T13:52:45;7.40;99.90
8539;DHT22;4307;53.868;11.680;2022-11-24T13:55:21;7.30;99.90
8539;DHT22;4307;53.868;11.680;2022-11-24T13:57:50;7.30;99.90
8539;DHT22;4307;53.868;11.680;2022-11-24T14:00:20;7.30;99.90
8539;DHT22;4307;53.868;11.680;2022-11-24T14:02:48;7.40;99.90
8539;DHT22;4307;53.868;11.680;2022-11-24T14:05:16;7.40;99.90
8539;DHT22;4307;53.868;11.680;2022-11-24T14:07:45;7.30;99.90
8539;DHT22;4307;53.868;11.680;2022-11-24T14:10:14;7.30;99.90
8539;DHT22;4307;53.868;11.680;2022-11-24T14:12:41;7.40;99.90
8539;DHT22;4307;53.868;11.680;2022-11-24T14:15:22;7.30;99.90
8539;DHT22;4307;53.868;11.680;2022-11-24T14:17:49;7.40;99.90
8539;DHT22;4307;53.868;11.680;2022-11-24T14:20:22;7.40;99.90
8539;DHT22;4307;53.868;11.680;2022-11-24T14:22:50;7.40;99.90
8539;DHT22;4307;53.868;11.680;2022-11-24T14:25:24;7.40;99.90
8539;DHT22;4307;53.868;11.680;2022-11-24T14:27:51;7.40;99.90
8539;DHT22;4307;53.868;11.680;2022-11-24T14:30:20;7.50;99.90
8539;DHT22;4307;53.868;11.680;2022-11-24T14:32:55;7.40;99.90
8539;DHT22;4307;53.868;11.680;2022-11-24T14:35:25;7.40;99.90
8539;DHT22;4307;53.868;11.680;2022-11-24T14:37:52;7.40;99.90
8539;DHT22;4307;53.868;11.680;2022-11-24T14:40:39;7.40;99.90
8539;DHT22;4307;53.868;11.680;2022-11-24T14:43:15;7.40;99.90
8539;DHT22;4307;53.868;11.680;2022-11-24T14:45:48;7.40;99.90
8539;DHT22;4307;53.868;11.680;2022-11-24T14:48:17;7.40;99.90
8539;DHT22;4307;53.868;11.680;2022-11-24T14:50:45;7.30;99.90
8539;DHT22;4307;53.868;11.680;2022-11-24T14:53:14;7.30;99.90
8539;DHT22;4307;53.868;11.680;2022-11-24T14:55:41;7.30;99.90
8539;DHT22;4307;53.868;11.680;2022-11-24T14:58:20;7.30;99.90
8539;DHT22;4307;53.868;11.680;2022-11-24T15:01:07;7.30;99.90
8539;DHT22;4307;53.868;11.680;2022-11-24T15:03:36;7.30;99.90
8539;DHT22;4307;53.868;11.680;2022-11-24T15:06:03;7.30;99.90
8539;DHT22;4307;53.868;11.680;2022-11-24T15:08:34;7.30;99.90
8539;DHT22;4307;53.868;11.680;2022-11-24T15:11:04;7.20;99.90
8539;DHT22;4307;53.868;11.680;2022-11-24T15:13:34;7.20;99.90
8539;DHT22;4307;53.868;11.680;2022-11-24T15:16:04;7.20;99.90
8539;DHT22;4307;53.868;11.680;2022-11-24T15:18:38;7.20;99.90
8539;DHT22;4307;53.868;11.680;2022-11-24T15:21:06;7.20;99.90
8539;DHT22;4307;53.868;11.680;2022-11-24T15:23:33;7.20;99.90
8539;DHT22;4307;53.868;11.680;2022-11-24T15:26:22;7.10;99.90
8539;DHT22;4307;53.868;11.680;2022-11-24T15:28:49;7.10;99.90
8539;DHT22;4307;53.868;11.680;2022-11-24T15:31:15;7.10;99.90
8539;DHT22;4307;53.868;11.680;2022-11-24T15:33:43;7.10;99.90
8539;DHT22;4307;53.868;11.680;2022-11-24T15:36:10;7.00;99.90
8539;DHT22;4307;53.868;11.680;2022-11-24T15:38:38;7.00;99.90
8539;DHT22;4307;53.868;11.680;2022-11-24T15:41:15;7.00;99.90
8539;DHT22;4307;53.868;11.680;2022-11-24T15:43:42;6.90;99.90
8539;DHT22;4307;53.868;11.680;2022-11-24T15:46:09;6.90;99.90
8539;DHT22;4307;53.868;11.680;2022-11-24T15:48:36;6.90;99.90
8539;DHT22;4307;53.868;11.680;2022-11-24T15:51:06;6.90;99.90
8539;DHT22;4307;53.868;11.680;2022-11-24T15:53:36;6.90;99.90
8539;DHT22;4307;53.868;11.680;2022-11-24T15:56:06;6.90;99.90
8539;DHT22;4307;53.868;11.680;2022-11-24T15:58:34;6.90;99.90
8539;DHT22;4307;53.868;11.680;2022-11-24T16:01:00;6.90;99.90
8539;DHT22;4307;53.868;11.680;2022-11-24T16:03:27;6.90;99.90
8539;DHT22;4307;53.868;11.680;2022-11-24T16:05:54;6.90;99.90
8539;DHT22;4307;53.868;11.680;2022-11-24T16:08:22;6.90;99.90
8539;DHT22;4307;53.868;11.680;2022-11-24T16:10:49;6.90;99.90
8539;DHT22;4307;53.868;11.680;2022-11-24T16:13:15;6.90;99.90
8539;DHT22;4307;53.868;11.680;2022-11-24T16:15:42;6.90;99.90
8539;DHT22;4307;53.868;11.680;2022-11-24T16:18:10;6.90;99.90
8539;DHT22;4307;53.868;11.680;2022-11-24T16:20:38;6.80;99.90
8539;DHT22;4307;53.868;11.680;2022-11-24T16:23:04;6.80;99.90
8539;DHT22;4307;53.868;11.680;2022-11-24T16:25:32;6.80;99.90
8539;DHT22;4307;53.868;11.680;2022-11-24T16:27:59;6.80;99.90
8539;DHT22;4307;53.868;11.680;2022-11-24T16:30:26;6.80;99.90
8539;DHT22;4307;53.868;11.680;2022-11-24T16:32:52;6.80;99.90
8539;DHT22;4307;53.868;11.680;2022-11-24T16:35:19;6.80;99.90
8539;DHT22;4307;53.868;11.680;2022-11-24T16:37:46;6.80;99.90
8539;DHT22;4307;53.868;11.680;2022-11-24T16:40:12;6.80;99.90
8539;DHT22;4307;53.868;11.680;2022-11-24T16:42:40;6.80;99.90
8539;DHT22;4307;53.868;11.680;2022-11-24T16:45:10;6.80;99.90
8539;DHT22;4307;53.868;11.680;2022-11-24T16:47:38;6.80;99.90
8539;DHT22;4307;53.868;11.680;2022-11-24T16:50:07;6.80;99.90
8539;DHT22;4307;53.868;11.680;2022-11-24T16:52:33;6.80;99.90
8539;DHT22;4307;53.868;11.680;2022-11-24T16:55:00;6.80;99.90
8539;DHT22;4307;53.868;11.680;2022-11-24T16:57:27;6.80;99.90